createdAt,value
2019-05-17T00:02:20.296Z,7.62
2019-05-17T00:04:52.978Z,6.70
2019-05-17T00:07:27.319Z,7.00
2019-05-17T00:10:00.134Z,6.20
2019-05-17T00:12:33.004Z,6.42
2019-05-17T00:15:07.146Z,5.92
2019-05-17T00:17:40.199Z,6.17
2019-05-17T00:20:12.913Z,6.95
2019-05-17T00:22:47.143Z,6.80
2019-05-17T00:25:20.353Z,7.58
2019-05-17T00:27:53.240Z,9.38
2019-05-17T00:30:26.537Z,6.85
2019-05-17T00:33:00.538Z,7.25
2019-05-17T00:35:37.472Z,7.00
2019-05-17T00:38:08.864Z,7.83
2019-05-17T00:40:42.183Z,7.05
2019-05-17T00:43:16.879Z,8.25
2019-05-17T00:45:50.684Z,8.30
2019-05-17T00:48:23.478Z,7.47
2019-05-17T00:51:02.202Z,9.50
2019-05-17T00:53:30.833Z,9.38
2019-05-17T00:56:03.573Z,9.03
2019-05-17T00:58:37.023Z,9.03
2019-05-17T01:01:10.017Z,8.33
2019-05-17T01:03:42.763Z,8.20
2019-05-17T01:06:16.932Z,17.82
2019-05-17T01:09:00.894Z,10.85
2019-05-17T01:11:26.959Z,14.18
2019-05-17T01:13:59.513Z,13.32
2019-05-17T01:16:32.273Z,10.68
2019-05-17T01:19:06.797Z,11.38
2019-05-17T01:21:39.641Z,14.43
2019-05-17T01:24:12.603Z,13.43
2019-05-17T01:26:46.850Z,14.73
2019-05-17T01:29:19.804Z,11.48
2019-05-17T01:31:52.618Z,11.10
2019-05-17T01:34:27.218Z,12.28
2019-05-17T01:36:59.974Z,14.73
2019-05-17T01:39:33.589Z,14.47
2019-05-17T01:42:06.901Z,14.40
2019-05-17T01:44:40.064Z,16.97
2019-05-17T01:47:12.933Z,18.73
2019-05-17T01:49:46.931Z,15.60
2019-05-17T01:52:19.884Z,13.18
2019-05-17T01:54:52.765Z,14.87
2019-05-17T01:57:27.399Z,15.43
2019-05-17T02:00:00.793Z,13.18
2019-05-17T02:02:38.355Z,13.75
2019-05-17T02:05:11.143Z,13.62
2019-05-17T02:07:46.384Z,14.53
2019-05-17T02:10:18.497Z,15.35
2019-05-17T02:12:51.159Z,14.95
2019-05-17T02:15:23.993Z,15.98
2019-05-17T02:17:57.377Z,19.98
2019-05-17T02:20:30.638Z,17.23
2019-05-17T02:23:03.644Z,17.27
2019-05-17T02:25:37.059Z,16.77
2019-05-17T02:28:12.202Z,16.60
2019-05-17T02:30:45.125Z,17.85
2019-05-17T02:33:18.000Z,17.27
2019-05-17T02:35:53.659Z,15.72
2019-05-17T02:38:26.305Z,17.42
2019-05-17T02:40:59.210Z,17.12
2019-05-17T02:43:33.481Z,16.73
2019-05-17T02:46:07.089Z,16.57
2019-05-17T02:48:42.513Z,16.65
2019-05-17T02:51:14.442Z,15.05
2019-05-17T02:53:47.363Z,15.43
2019-05-17T02:56:22.864Z,16.23
2019-05-17T02:58:54.778Z,17.23
2019-05-17T03:01:27.640Z,15.58
2019-05-17T03:04:03.572Z,16.77
2019-05-17T03:06:35.023Z,16.35
2019-05-17T03:09:08.359Z,15.70
2019-05-17T03:11:42.897Z,15.03
2019-05-17T03:14:16.379Z,16.55
2019-05-17T03:16:49.234Z,17.37
2019-05-17T03:19:23.579Z,16.95
2019-05-17T03:21:57.078Z,15.23
2019-05-17T03:24:33.052Z,15.30
2019-05-17T03:27:04.366Z,16.40
2019-05-17T03:29:37.244Z,14.98
2019-05-17T03:32:16.822Z,16.20
2019-05-17T03:34:45.130Z,14.10
2019-05-17T03:37:18.309Z,14.80
2019-05-17T03:39:53.593Z,15.40
2019-05-17T03:42:26.610Z,15.72
2019-05-17T03:45:02.582Z,15.18
2019-05-17T03:47:33.864Z,15.20
2019-05-17T03:50:07.073Z,15.15
2019-05-17T03:52:39.988Z,15.32
2019-05-17T03:55:13.340Z,14.95
2019-05-17T03:57:46.632Z,15.65
2019-05-17T04:00:23.225Z,14.65
2019-05-17T04:02:54.641Z,15.10
2019-05-17T04:05:27.900Z,18.00
2019-05-17T04:08:03.500Z,17.07
2019-05-17T04:10:34.900Z,18.17
2019-05-17T04:13:07.823Z,18.50
2019-05-17T04:15:43.333Z,18.67
2019-05-17T04:18:15.221Z,17.82
2019-05-17T04:20:47.985Z,16.30
2019-05-17T04:23:23.303Z,17.42
2019-05-17T04:25:55.152Z,15.30
2019-05-17T04:28:28.113Z,18.00
2019-05-17T04:31:02.833Z,18.67
2019-05-17T04:33:35.539Z,18.20
2019-05-17T04:36:08.283Z,16.40
2019-05-17T04:38:43.562Z,19.07
2019-05-17T04:41:15.838Z,18.12
2019-05-17T04:43:48.764Z,18.00
2019-05-17T04:46:23.539Z,18.35
2019-05-17T04:48:56.475Z,20.00
2019-05-17T04:51:32.296Z,19.35
2019-05-17T04:54:05.750Z,21.40
2019-05-17T04:56:42.429Z,20.72
2019-05-17T04:59:14.059Z,20.00
2019-05-17T05:01:47.479Z,21.20
2019-05-17T05:04:22.604Z,17.87
2019-05-17T05:06:54.796Z,20.68
2019-05-17T05:09:27.895Z,19.75
2019-05-17T05:12:05.043Z,18.45
2019-05-17T05:14:35.239Z,19.82
2019-05-17T05:17:07.969Z,18.02
2019-05-17T05:19:42.242Z,17.77
2019-05-17T05:22:17.528Z,19.17
2019-05-17T05:24:49.775Z,18.98
2019-05-17T05:27:22.633Z,18.00
2019-05-17T05:29:55.383Z,17.80
2019-05-17T05:32:28.138Z,19.25
2019-05-17T05:35:03.189Z,18.25
2019-05-17T05:37:36.160Z,19.52
2019-05-17T05:40:09.024Z,19.90
2019-05-17T05:42:42.643Z,18.25
2019-05-17T05:45:16.115Z,19.48
2019-05-17T05:47:49.238Z,19.10
2019-05-17T05:50:22.038Z,17.95
2019-05-17T05:52:54.700Z,19.15
2019-05-17T05:55:28.079Z,18.20
2019-05-17T05:58:03.014Z,19.42
2019-05-17T06:00:35.334Z,19.77
2019-05-17T06:03:08.448Z,48.45
2019-05-17T06:05:42.263Z,22.50
2019-05-17T06:08:15.488Z,20.35
2019-05-17T06:10:48.793Z,21.20
2019-05-17T06:13:21.945Z,27.73
2019-05-17T06:15:54.759Z,22.80
2019-05-17T06:18:27.659Z,22.22
2019-05-17T06:21:02.731Z,22.55
2019-05-17T06:23:35.178Z,19.98
2019-05-17T06:26:08.348Z,21.73
2019-05-17T06:28:42.516Z,21.37
2019-05-17T06:31:15.796Z,20.45
2019-05-17T06:33:49.030Z,22.13
2019-05-17T06:36:22.349Z,19.87
2019-05-17T06:38:55.088Z,19.50
2019-05-17T06:41:27.944Z,22.70
2019-05-17T06:44:02.922Z,19.92
2019-05-17T06:46:35.697Z,19.70
2019-05-17T06:49:08.828Z,21.52
2019-05-17T06:51:42.625Z,19.12
2019-05-17T06:54:15.915Z,19.57
2019-05-17T06:56:48.873Z,20.45
2019-05-17T06:59:21.843Z,16.97
2019-05-17T07:01:54.650Z,16.95
2019-05-17T07:04:27.328Z,16.80
2019-05-17T07:07:20.547Z,17.57
2019-05-17T07:09:52.452Z,16.85
2019-05-17T07:12:25.329Z,18.27
2019-05-17T07:14:58.479Z,15.30
2019-05-17T07:17:32.203Z,16.50
2019-05-17T07:20:04.904Z,18.27
2019-05-17T07:22:40.468Z,16.25
2019-05-17T07:25:12.294Z,16.05
2019-05-17T07:27:46.096Z,15.75
2019-05-17T07:30:19.555Z,17.07
2019-05-17T07:32:52.503Z,17.20
2019-05-17T07:35:25.388Z,15.20
2019-05-17T07:37:59.584Z,14.65
2019-05-17T07:40:32.503Z,16.27
2019-05-17T07:43:10.417Z,16.45
2019-05-17T07:45:40.403Z,14.73
2019-05-17T07:48:13.609Z,13.50
2019-05-17T07:50:46.361Z,13.65
2019-05-17T07:53:20.143Z,12.30
2019-05-17T07:55:53.574Z,11.03
2019-05-17T07:58:26.398Z,10.53
2019-05-17T08:01:01.560Z,11.45
2019-05-17T08:03:33.733Z,10.82
2019-05-17T08:06:06.990Z,11.15
2019-05-17T08:08:40.903Z,11.05
2019-05-17T08:11:14.495Z,11.10
2019-05-17T08:13:47.354Z,8.55
2019-05-17T08:16:20.764Z,9.45
2019-05-17T08:18:53.484Z,9.78
2019-05-17T08:21:26.185Z,11.97
2019-05-17T08:24:00.266Z,11.38
2019-05-17T08:26:33.563Z,9.95
2019-05-17T08:29:06.284Z,9.65
2019-05-17T08:31:40.382Z,8.65
2019-05-17T08:34:13.714Z,10.48
2019-05-17T08:36:46.384Z,9.23
2019-05-17T08:39:19.898Z,8.23
2019-05-17T08:41:53.030Z,9.40
2019-05-17T08:44:25.805Z,9.93
2019-05-17T08:46:59.473Z,9.38
2019-05-17T08:49:32.858Z,8.80
2019-05-17T08:52:05.594Z,8.40
2019-05-17T08:54:42.653Z,10.28
2019-05-17T08:57:13.424Z,10.65
2019-05-17T08:59:46.197Z,10.63
2019-05-17T09:02:19.902Z,9.98
2019-05-17T09:04:54.154Z,9.15
2019-05-17T09:07:29.388Z,8.13
2019-05-17T09:10:02.050Z,8.73
2019-05-17T09:12:35.204Z,8.68
2019-05-17T09:15:10.054Z,8.60
2019-05-17T09:17:42.924Z,8.58
2019-05-17T09:20:15.888Z,9.83
2019-05-17T09:22:51.078Z,11.78
2019-05-17T09:25:24.178Z,10.03
2019-05-17T09:27:56.929Z,9.20
2019-05-17T09:30:31.347Z,10.45
2019-05-17T09:33:04.403Z,8.95
2019-05-17T09:35:37.325Z,7.53
2019-05-17T09:38:10.459Z,9.28
2019-05-17T09:40:43.603Z,7.90
2019-05-17T09:43:20.303Z,7.45
2019-05-17T09:45:52.400Z,7.87
2019-05-17T09:48:25.884Z,9.00
2019-05-17T09:51:00.029Z,10.45
2019-05-17T09:53:33.179Z,11.30
2019-05-17T09:56:06.050Z,10.90
2019-05-17T09:58:39.655Z,8.10
2019-05-17T10:01:12.773Z,9.30
2019-05-17T10:03:45.563Z,8.95
2019-05-17T10:06:20.053Z,8.00
2019-05-17T10:08:53.086Z,7.55
2019-05-17T10:11:25.823Z,7.85
2019-05-17T10:14:01.243Z,7.42
2019-05-17T10:16:33.889Z,8.60
2019-05-17T10:19:06.624Z,9.18
2019-05-17T10:21:40.020Z,8.28
2019-05-17T10:24:13.414Z,9.23
2019-05-17T10:26:46.114Z,7.92
2019-05-17T10:29:18.997Z,9.23
2019-05-17T10:31:51.697Z,6.00
2019-05-17T10:34:24.623Z,7.80
2019-05-17T10:36:57.488Z,7.65
2019-05-17T10:39:30.295Z,7.45
2019-05-17T10:42:03.007Z,7.90
2019-05-17T10:44:44.368Z,6.50
2019-05-17T10:47:10.443Z,7.87
2019-05-17T10:49:43.410Z,7.87
2019-05-17T10:52:16.233Z,8.90
2019-05-17T10:54:48.965Z,9.50
2019-05-17T10:57:22.629Z,7.28
2019-05-17T10:59:55.405Z,6.12
2019-05-17T11:02:30.413Z,7.55
2019-05-17T11:05:02.701Z,5.37
2019-05-17T11:07:35.584Z,5.17
2019-05-17T11:10:11.177Z,6.53
2019-05-17T11:12:42.943Z,5.90
2019-05-17T11:15:15.728Z,5.45
2019-05-17T11:17:48.468Z,5.15
2019-05-17T11:20:21.363Z,7.92
2019-05-17T11:22:54.113Z,5.67
2019-05-17T11:25:28.371Z,8.40
2019-05-17T11:28:01.429Z,7.92
2019-05-17T11:30:34.197Z,7.20
2019-05-17T11:33:06.936Z,6.92
2019-05-17T11:35:39.888Z,6.50
2019-05-17T11:38:12.788Z,8.35
2019-05-17T11:40:45.713Z,6.37
2019-05-17T11:43:18.876Z,7.90
2019-05-17T11:45:52.168Z,8.28
2019-05-17T11:48:25.098Z,7.97
2019-05-17T11:50:57.992Z,6.83
2019-05-17T11:53:30.808Z,8.03
2019-05-17T11:56:04.252Z,8.00
2019-05-17T11:58:37.399Z,8.38
2019-05-17T12:01:10.204Z,7.03
2019-05-17T12:03:43.343Z,5.87
2019-05-17T12:06:16.636Z,8.48
2019-05-17T12:08:49.517Z,6.75
2019-05-17T12:11:22.211Z,7.08
2019-05-17T12:13:55.608Z,6.12
2019-05-17T12:16:28.691Z,6.10
2019-05-17T12:19:01.403Z,5.87
2019-05-17T12:21:34.189Z,5.12
2019-05-17T12:24:07.003Z,5.20
2019-05-17T12:26:39.825Z,7.45
2019-05-17T12:29:13.214Z,7.33
2019-05-17T12:31:45.878Z,7.37
2019-05-17T12:34:18.839Z,7.62
2019-05-17T12:36:51.496Z,6.92
2019-05-17T12:39:24.884Z,7.50
2019-05-17T12:41:57.722Z,6.70
2019-05-17T12:44:31.004Z,6.58
2019-05-17T12:47:03.754Z,7.25
2019-05-17T12:49:36.674Z,5.67
2019-05-17T12:52:09.564Z,6.92
2019-05-17T12:54:42.940Z,7.47
2019-05-17T12:57:15.671Z,6.85
2019-05-17T12:59:48.441Z,6.60
2019-05-17T13:02:21.714Z,6.50
2019-05-17T13:04:54.634Z,6.70
2019-05-17T13:07:28.040Z,8.13
2019-05-17T13:10:01.016Z,6.47
2019-05-17T13:12:33.974Z,7.10
2019-05-17T13:15:06.839Z,7.28
2019-05-17T13:17:39.659Z,8.23
2019-05-17T13:20:12.550Z,6.25
2019-05-17T13:22:45.324Z,6.97
2019-05-17T13:25:18.609Z,7.62
2019-05-17T13:27:51.909Z,8.03
2019-05-17T13:30:25.082Z,5.55
2019-05-17T13:32:58.537Z,4.97
2019-05-17T13:35:31.845Z,4.15
2019-05-17T13:38:04.954Z,4.15
2019-05-17T13:40:39.907Z,4.53
2019-05-17T13:43:12.421Z,6.80
2019-05-17T13:45:45.344Z,5.62
2019-05-17T13:48:18.194Z,6.15
2019-05-17T13:50:52.268Z,6.20
2019-05-17T13:56:33.915Z,4.40
2019-05-17T13:59:06.698Z,4.60
2019-05-17T14:01:40.045Z,6.25
2019-05-17T14:04:12.780Z,6.50
2019-05-17T14:06:45.479Z,5.30
2019-05-17T14:09:18.530Z,5.50
2019-05-17T14:11:51.419Z,4.67
2019-05-17T14:14:24.523Z,6.20
2019-05-17T14:16:57.242Z,16.67
2019-05-17T14:19:29.973Z,8.15
2019-05-17T14:22:02.766Z,4.83
2019-05-17T14:24:35.504Z,5.08
2019-05-17T14:27:08.745Z,5.62
2019-05-17T14:29:41.579Z,6.37
2019-05-17T14:32:15.004Z,5.65
2019-05-17T14:34:48.084Z,11.73
2019-05-17T14:37:20.973Z,6.08
2019-05-17T14:39:54.315Z,7.95
2019-05-17T14:42:27.473Z,7.20
2019-05-17T14:45:00.419Z,6.95
2019-05-17T14:47:33.273Z,25.70
2019-05-17T14:50:06.124Z,14.95
2019-05-17T14:52:38.933Z,8.15
2019-05-17T14:55:11.703Z,6.30
2019-05-17T14:57:44.528Z,7.25
2019-05-17T15:00:17.988Z,7.30
2019-05-17T15:02:50.717Z,5.65
2019-05-17T15:05:24.443Z,4.42
2019-05-17T15:07:57.738Z,5.25
2019-05-17T15:10:30.969Z,4.42
2019-05-17T15:13:03.814Z,6.90
2019-05-17T15:15:36.619Z,5.37
2019-05-17T15:18:10.196Z,5.78
2019-05-17T15:20:44.264Z,4.00
2019-05-17T15:23:17.491Z,4.17
2019-05-17T15:25:50.365Z,3.42
2019-05-17T15:28:23.265Z,4.53
2019-05-17T15:30:56.134Z,4.95
2019-05-17T15:33:28.919Z,5.72
2019-05-17T15:36:01.728Z,4.50
2019-05-17T15:38:34.521Z,5.35
2019-05-17T15:41:07.484Z,6.10
2019-05-17T15:43:40.764Z,6.10
2019-05-17T15:46:13.714Z,4.97
2019-05-17T15:48:46.546Z,5.45
2019-05-17T15:51:19.992Z,5.85
2019-05-17T15:53:52.923Z,7.10
2019-05-17T15:56:25.678Z,4.83
2019-05-17T15:58:58.453Z,4.95
2019-05-17T16:01:31.178Z,5.97
2019-05-17T16:04:04.077Z,5.67
2019-05-17T16:06:37.082Z,6.17
2019-05-17T16:09:09.884Z,6.62
2019-05-17T16:11:42.763Z,7.37
2019-05-17T16:14:15.625Z,6.85
2019-05-17T16:16:48.474Z,6.80
2019-05-17T16:19:21.383Z,6.30
2019-05-17T16:21:54.118Z,7.10
2019-05-17T16:24:27.159Z,5.55
2019-05-17T16:27:00.102Z,4.53
2019-05-17T16:29:33.040Z,5.15
2019-05-17T16:32:06.393Z,4.15
2019-05-17T16:34:39.353Z,4.92
2019-05-17T16:37:12.420Z,4.62
2019-05-17T16:39:45.190Z,5.45
2019-05-17T16:42:17.873Z,5.47
2019-05-17T16:44:50.736Z,4.90
2019-05-17T16:47:23.990Z,4.67
2019-05-17T16:49:58.215Z,4.78
2019-05-17T16:52:31.171Z,4.83
2019-05-17T16:55:04.041Z,7.05
2019-05-17T16:57:37.558Z,4.95
2019-05-17T17:00:11.166Z,5.42
2019-05-17T17:02:44.119Z,5.35
2019-05-17T17:05:17.708Z,4.03
2019-05-17T17:07:51.486Z,4.90
2019-05-17T17:10:24.345Z,5.40
2019-05-17T17:12:57.306Z,5.33
2019-05-17T17:15:30.278Z,5.45
2019-05-17T17:18:03.216Z,5.12
2019-05-17T17:20:36.472Z,4.95
2019-05-17T17:23:09.174Z,5.65
2019-05-17T17:25:42.452Z,4.90
2019-05-17T17:28:16.232Z,4.75
2019-05-17T17:30:48.997Z,5.45
2019-05-17T17:33:21.979Z,5.47
2019-05-17T17:35:54.844Z,4.90
2019-05-17T17:38:27.509Z,5.58
2019-05-17T17:41:01.198Z,5.25
2019-05-17T17:43:33.979Z,6.15
2019-05-17T17:46:06.979Z,5.28
2019-05-17T17:48:39.705Z,5.08
2019-05-17T17:51:12.704Z,5.65
2019-05-17T17:53:45.857Z,4.37
2019-05-17T17:56:18.604Z,4.53
2019-05-17T17:58:51.507Z,4.35
2019-05-17T18:01:24.769Z,5.17
2019-05-17T18:03:57.643Z,4.67
2019-05-17T18:06:30.359Z,4.45
2019-05-17T18:09:05.012Z,4.28
2019-05-17T18:11:38.069Z,5.45
2019-05-17T18:14:13.753Z,5.12
2019-05-17T18:16:45.719Z,5.58
2019-05-17T18:19:18.377Z,5.67
2019-05-17T18:21:51.185Z,6.72
2019-05-17T18:24:23.963Z,4.53
2019-05-17T18:26:56.763Z,5.50
2019-05-17T18:29:29.578Z,7.35
2019-05-17T18:32:02.484Z,6.60
2019-05-17T18:34:35.280Z,6.42
2019-05-17T18:37:08.120Z,6.95
2019-05-17T18:39:40.797Z,6.58
2019-05-17T18:42:13.688Z,6.95
2019-05-17T18:44:46.508Z,6.60
2019-05-17T18:47:19.339Z,6.83
2019-05-17T18:49:52.524Z,8.58
2019-05-17T18:52:25.360Z,5.80
2019-05-17T18:54:58.454Z,9.05
2019-05-17T18:57:32.125Z,6.37
2019-05-17T19:00:04.884Z,7.03
2019-05-17T19:02:38.479Z,8.10
2019-05-17T19:05:11.319Z,8.48
2019-05-17T19:07:44.597Z,6.72
2019-05-17T19:10:17.555Z,7.05
2019-05-17T19:12:50.254Z,7.20
2019-05-17T19:15:22.993Z,7.08
2019-05-17T19:17:55.920Z,9.88
2019-05-17T19:20:29.413Z,29.75
2019-05-17T19:23:02.761Z,40.43
2019-05-17T19:25:35.509Z,9.00
2019-05-17T19:28:08.439Z,9.60
2019-05-17T19:30:41.188Z,8.20
2019-05-17T19:33:14.178Z,9.15
2019-05-17T19:35:47.479Z,8.25
2019-05-17T19:38:20.192Z,9.78
2019-05-17T19:40:53.522Z,8.53
2019-05-17T19:43:26.355Z,8.18
2019-05-17T19:45:59.087Z,8.40
2019-05-17T19:48:31.951Z,8.70
2019-05-17T19:51:04.775Z,9.43
2019-05-17T19:53:37.721Z,8.63
2019-05-17T19:56:10.419Z,7.67
2019-05-17T19:58:43.226Z,8.85
2019-05-17T20:01:16.256Z,8.05
2019-05-17T20:03:49.085Z,10.30
2019-05-17T20:06:21.818Z,8.60
2019-05-17T20:08:54.988Z,9.95
2019-05-17T20:11:34.326Z,8.03
2019-05-17T20:14:02.233Z,8.00
2019-05-17T20:16:35.070Z,8.80
2019-05-17T20:19:08.147Z,8.75
2019-05-17T20:21:40.888Z,8.98
2019-05-17T20:24:13.732Z,9.65
2019-05-17T20:26:46.541Z,9.53
2019-05-17T20:29:19.672Z,10.88
2019-05-17T20:31:52.540Z,11.60
2019-05-17T20:34:25.622Z,12.82
2019-05-17T20:36:58.368Z,12.13
2019-05-17T20:39:31.070Z,12.40
2019-05-17T20:42:03.832Z,11.08
2019-05-17T20:44:36.670Z,10.80
2019-05-17T20:47:09.285Z,10.65
2019-05-17T20:49:42.183Z,13.48
2019-05-17T20:52:15.021Z,10.93
2019-05-17T20:54:47.971Z,9.73
2019-05-17T20:57:20.756Z,11.20
2019-05-17T20:59:53.696Z,11.63
2019-05-17T21:02:26.457Z,10.85
2019-05-17T21:04:59.991Z,12.18
2019-05-17T21:07:32.770Z,11.22
2019-05-17T21:10:05.546Z,11.57
2019-05-17T21:12:38.366Z,13.43
2019-05-17T21:15:11.227Z,12.78
2019-05-17T21:17:44.201Z,22.05
2019-05-17T21:20:17.542Z,22.87
2019-05-17T21:22:50.345Z,21.93
2019-05-17T21:25:23.371Z,40.43
2019-05-17T21:27:56.107Z,26.70
2019-05-17T21:30:28.939Z,18.95
2019-05-17T21:33:01.722Z,16.25
2019-05-17T21:35:34.477Z,15.48
2019-05-17T21:38:07.231Z,13.28
2019-05-17T21:40:40.563Z,13.18
2019-05-17T21:43:13.314Z,13.05
2019-05-17T21:45:46.055Z,13.15
2019-05-17T21:48:18.765Z,12.05
2019-05-17T21:50:51.620Z,11.18
2019-05-17T21:53:24.348Z,12.55
2019-05-17T21:55:57.254Z,11.45
2019-05-17T21:58:30.015Z,13.35
2019-05-17T22:01:03.082Z,12.82
2019-05-17T22:03:36.367Z,13.35
2019-05-17T22:06:09.098Z,12.78
2019-05-17T22:08:41.914Z,11.20
2019-05-17T22:11:15.170Z,13.25
2019-05-17T22:13:47.963Z,14.10
2019-05-17T22:16:20.695Z,14.23
2019-05-17T22:18:54.006Z,12.47
2019-05-17T22:21:26.883Z,12.25
2019-05-17T22:23:59.841Z,11.00
2019-05-17T22:26:32.611Z,12.23
2019-05-17T22:29:05.311Z,12.63
2019-05-17T22:31:39.073Z,11.88
2019-05-17T22:34:13.086Z,12.28
2019-05-17T22:36:45.991Z,12.63
2019-05-17T22:39:18.731Z,12.98
2019-05-17T22:41:51.613Z,12.53
2019-05-17T22:44:24.542Z,11.22
2019-05-17T22:46:57.637Z,14.28
2019-05-17T22:49:30.441Z,16.42
2019-05-17T22:52:03.413Z,13.90
2019-05-17T22:54:36.166Z,13.93
2019-05-17T22:57:08.932Z,13.00
2019-05-17T22:59:42.125Z,13.90
2019-05-17T23:02:15.030Z,15.13
2019-05-17T23:04:47.893Z,15.75
2019-05-17T23:07:20.859Z,12.53
2019-05-17T23:09:53.729Z,11.57
2019-05-17T23:12:26.835Z,12.10
2019-05-17T23:14:59.688Z,13.45
2019-05-17T23:17:32.494Z,12.10
2019-05-17T23:20:05.246Z,12.55
2019-05-17T23:22:38.060Z,12.50
2019-05-17T23:25:11.026Z,14.85
2019-05-17T23:27:43.831Z,29.00
2019-05-17T23:30:16.926Z,120.00
2019-05-17T23:32:49.753Z,148.90
2019-05-17T23:35:22.526Z,38.40
2019-05-17T23:37:55.580Z,24.47
2019-05-17T23:40:28.535Z,15.80
2019-05-17T23:43:01.682Z,16.45
2019-05-17T23:45:34.494Z,14.90
2019-05-17T23:48:07.294Z,14.25
2019-05-17T23:50:40.513Z,13.13
2019-05-17T23:53:13.573Z,14.83
2019-05-17T23:55:46.268Z,14.60
2019-05-17T23:58:19.573Z,13.40
